Terminal Aerodrome Forecast
Issued by NWS Newport/Morehead City, NC

Home | Current Version | Previous Version | Graphics & Text | Print | Product List | Glossary On
Versions: 1 2 3 4 5 6 7 8 9 10 11 12 13 14 15 16 17 18 19 20 21 22 23 24 25
375
FTUS42 KMHX 291558 AAB
TAFEWN
TAF AMD
KEWN 291558Z 2916/3012 03008KT P6SM OVC007
     FM291730 01006KT P6SM BKN015
     FM291900 35006KT P6SM SCT040
     FM300800 VRB04KT 4SM BR SCT007 BKN020=

USA.gov is the U.S. government's official web portal to all federal, state and local government web resources and services.